aviador You're here:

KAOO Decoded Metar

ALTOONA in PA, USA
Report Time2017-07-22 01:53:00
UTC Time2017-07-22 02:36:35
Flight Rules vfr VFR
Wind250° at 04 kt
W.Decomp.*RWY 30: 3.1 kt HW 2.6 kt LCW
RWY 21: 2.6 kt HW 3.1 kt RCW
W.Rank250° ranks 14
Current wind is below 250° avg. (7.8)
Visibility9999 m
Phenomena:N/A
Clouds:N/A
Expected CloudBase > 800 ft AGL from Temp-Dew spread
CeilingNone
Temp23°C (ISA +11)
Dew Point21°C (89% RH)
QNH1016 hPa
Density Alt2,999 ft
Elevation1,493 ft
Report Wrong Elevation
Raw Report
METAR KAOO 220153Z AUTO 25004KT 10SM CLR 23/21 A3000 RMK AO2 SLP146
T02330211=

Extra information for KAOO:More info

Metar Taf Metar & Taf Last 4 Metars F.Rules Stats Wind Profile Meteogram Temp Stats Airport Information Weather charts Add Link Nearby VenuesMetar ALERT Operation Metar Decoded Social comments

AIRNAV info for KAOO